KATL/ATL METAR and TAF weather

Enter ICAO airport designator
Station Type Date Time Source
KATL METAR 2021/09/27 06:52 UTC NOAA

KATL 270652Z 00000KT 10SM CLR 17/14 A3014 RMK AO2 SLP197 T01720139


Station Type Date Time Source
KATL Decoded METAR 2021/09/27 06:52 UTC NOAA

HARTSFIELD-JACKSON ATLANTA, GA, United States (KATL) 33-39N 84-26W
Sep 27, 2021 - 02:52 AM EDT / 2021.09.27 0652 UTC
Wind: Calm:0
Visibility: 10 mile(s):0
Sky conditions: clear
Temperature: 63.0 F (17.2 C)
Dew Point: 57.0 F (13.9 C)
Relative Humidity: 80%
Pressure (altimeter): 30.14 in. Hg (1020 hPa)
ob: KATL 270652Z 00000KT 10SM CLR 17/14 A3014 RMK AO2 SLP197 T01720139
cycle: 7

Station Type Date Time Source
KATL TAF 2021/09/27 06:36 UTC NOAA

TAF KATL 270535Z 2706/2812 VRB03KT P6SM SKC
FM271500 25005KT P6SM FEW050
FM280100 VRB03KT P6SM SKC

Example: see airport list